Time;durP1;ratioP1;P1;durP2;ratioP2;P2;SDS_P1;SDS_P2;PMS_P1;PMS_P2;Temp;Humidity;BMP_temperature;BMP_pressure;BME280_temperature;BME280_humidity;BME280_pressure;Samples;Min_cycle;Max_cycle;Signal;HPM_P1;HPM_P2
2023/03/14 00:01:31;;;;;;;;;;;11.60;76.70;;;;;;5104492;28;20173;-85
2023/03/14 00:03:56;;;;;;;;;;;11.60;76.50;;;;;;5078384;28;19919;-85
2023/03/14 00:06:22;;;;;;;;;;;11.60;76.50;;;;;;5094616;28;19908;-83
2023/03/14 00:08:47;;;;;;;;;;;11.60;76.20;;;;;;5064244;28;19916;-85
2023/03/14 00:11:17;;;;;;;;;;;11.60;76.00;;;;;;5069410;28;20353;-81
2023/03/14 00:13:46;;;;;;;;;;;11.70;75.80;;;;;;5069480;28;20353;-81
2023/03/14 00:16:12;;;;;;;;;;;11.60;76.00;;;;;;5070803;28;19919;-81
2023/03/14 00:18:38;;;;;;;;;;;11.60;76.00;;;;;;5088753;28;19915;-82
2023/03/14 00:23:40;;;;;;;;;;;11.50;76.00;;;;;;5048618;28;19928;-81
2023/03/14 00:26:16;;;;;;;;;;;11.60;75.90;;;;;;5038901;28;19942;-80
2023/03/14 00:28:42;;;;;;;;;;;11.60;75.80;;;;;;5053538;28;20280;-81
2023/03/14 00:31:11;;;;;;;;;;;11.60;75.70;;;;;;5047576;28;20287;-81
2023/03/14 00:33:36;;;;;;;;;;;11.50;76.10;;;;;;5053850;28;19924;-79
2023/03/14 00:36:08;;;;;;;;;;;11.50;76.30;;;;;;5035130;28;19909;-79
2023/03/14 00:38:34;;;;;;;;;;;11.50;76.10;;;;;;5034651;28;20402;-80
2023/03/14 00:41:03;;;;;;;;;;;11.50;76.10;;;;;;5039847;28;19920;-80
2023/03/14 00:43:28;;;;;;;;;;;11.50;75.90;;;;;;5048967;28;19921;-81
2023/03/14 00:45:53;;;;;;;;;;;11.50;76.00;;;;;;5058453;28;19920;-81
2023/03/14 00:48:19;;;;;;;;;;;11.70;75.30;;;;;;5054893;28;20382;-82
2023/03/14 00:50:45;;;;;;;;;;;11.80;74.90;;;;;;5060482;28;19917;-81
2023/03/14 00:53:11;;;;;;;;;;;11.80;75.10;;;;;;5055947;28;20379;-81
2023/03/14 00:55:37;;;;;;;;;;;11.80;74.80;;;;;;5053976;28;20283;-81
2023/03/14 00:58:03;;;;;;;;;;;11.80;74.70;;;;;;5040430;28;20011;-81
2023/03/14 01:00:28;;;;;;;;;;;11.80;74.80;;;;;;5045849;28;19971;-81
2023/03/14 01:02:54;;;;;;;;;;;11.80;74.90;;;;;;5065494;28;19921;-81
2023/03/14 01:05:21;;;;;;;;;;;11.80;74.90;;;;;;5053697;28;19913;-81
2023/03/14 01:07:46;;;;;;;;;;;11.80;74.60;;;;;;5050394;28;20344;-82
2023/03/14 01:10:12;;;;;;;;;;;11.90;76.50;;;;;;5057174;28;19913;-81
2023/03/14 01:12:37;;;;;;;;;;;11.70;79.70;;;;;;5035020;28;19939;-80
2023/03/14 01:15:03;;;;;;;;;;;11.30;79.50;;;;;;5045769;28;19924;-80
2023/03/14 01:17:28;;;;;;;;;;;10.80;81.20;;;;;;5053878;28;19935;-80
2023/03/14 01:19:54;;;;;;;;;;;10.50;82.80;;;;;;5056967;28;19912;-81
2023/03/14 01:22:21;;;;;;;;;;;10.20;84.00;;;;;;5050857;28;19979;-81
2023/03/14 01:24:46;;;;;;;;;;;10.00;84.10;;;;;;5050889;28;19924;-81
2023/03/14 01:27:12;;;;;;;;;;;9.80;85.40;;;;;;5054030;28;19919;-81
2023/03/14 01:29:38;;;;;;;;;;;9.70;86.00;;;;;;5065887;28;19999;-81
2023/03/14 01:32:03;;;;;;;;;;;9.60;86.70;;;;;;5061356;28;19920;-81
2023/03/14 01:34:29;;;;;;;;;;;9.60;86.70;;;;;;5037597;28;19920;-82
2023/03/14 01:36:54;;;;;;;;;;;9.60;86.90;;;;;;5052987;28;19974;-82
2023/03/14 01:39:20;;;;;;;;;;;9.70;87.50;;;;;;5037581;28;19920;-81
2023/03/14 01:41:45;;;;;;;;;;;9.70;87.20;;;;;;5036031;28;20400;-82
2023/03/14 01:44:11;;;;;;;;;;;9.80;87.40;;;;;;5058300;28;19927;-82
2023/03/14 01:46:43;;;;;;;;;;;9.80;87.60;;;;;;5054382;28;19920;-81
2023/03/14 01:49:18;;;;;;;;;;;9.80;87.50;;;;;;5055770;28;19978;-82
2023/03/14 01:51:43;;;;;;;;;;;9.80;87.90;;;;;;5054639;28;19913;-82
2023/03/14 01:54:14;;;;;;;;;;;9.70;87.70;;;;;;5039197;28;19913;-82
2023/03/14 01:56:41;;;;;;;;;;;9.70;87.90;;;;;;5035127;28;19913;-81
2023/03/14 01:59:08;;;;;;;;;;;9.70;88.20;;;;;;5034105;28;19924;-81
2023/03/14 02:01:34;;;;;;;;;;;9.60;88.30;;;;;;5045654;28;19978;-81
2023/03/14 02:04:01;;;;;;;;;;;9.60;87.90;;;;;;5034022;28;19991;-82
2023/03/14 02:06:31;;;;;;;;;;;9.70;88.10;;;;;;5036700;28;19924;-81
2023/03/14 02:08:56;;;;;;;;;;;9.70;88.30;;;;;;5035020;28;20390;-81
2023/03/14 02:11:26;;;;;;;;;;;9.70;88.30;;;;;;5056589;28;19912;-82
2023/03/14 02:13:51;;;;;;;;;;;9.70;88.50;;;;;;5061132;28;19921;-82
2023/03/14 02:16:17;;;;;;;;;;;9.70;88.50;;;;;;5059310;28;19971;-82
2023/03/14 02:18:42;;;;;;;;;;;9.60;88.80;;;;;;5054448;28;19921;-82
2023/03/14 02:21:08;;;;;;;;;;;9.80;88.60;;;;;;5054668;28;19932;-81
2023/03/14 02:23:36;;;;;;;;;;;9.70;87.90;;;;;;5034773;28;20011;-81
2023/03/14 02:26:08;;;;;;;;;;;9.70;87.80;;;;;;5054774;28;19920;-81
2023/03/14 02:28:33;;;;;;;;;;;9.80;87.50;;;;;;5036670;28;19916;-81
2023/03/14 02:30:59;;;;;;;;;;;9.70;87.60;;;;;;5035932;28;20692;-81
2023/03/14 02:33:24;;;;;;;;;;;9.70;87.30;;;;;;5054435;28;19913;-81
2023/03/14 02:35:53;;;;;;;;;;;9.80;87.20;;;;;;5053797;28;19987;-81
2023/03/14 02:38:30;;;;;;;;;;;9.80;86.70;;;;;;5055929;28;19913;-82
2023/03/14 02:40:56;;;;;;;;;;;9.70;86.90;;;;;;5050884;28;19917;-81
2023/03/14 02:43:21;;;;;;;;;;;9.80;87.00;;;;;;5034120;28;20007;-81
2023/03/14 02:45:48;;;;;;;;;;;9.80;87.00;;;;;;5051696;28;20332;-81
2023/03/14 02:48:19;;;;;;;;;;;9.80;87.00;;;;;;5054912;28;19983;-80
2023/03/14 02:50:46;;;;;;;;;;;9.80;87.00;;;;;;5058278;28;20563;-80
2023/03/14 02:53:12;;;;;;;;;;;9.80;86.90;;;;;;5038804;28;19940;-80
2023/03/14 02:55:37;;;;;;;;;;;9.80;87.10;;;;;;5039385;28;20383;-80
2023/03/14 02:58:03;;;;;;;;;;;9.80;87.20;;;;;;5055860;28;19913;-80
2023/03/14 03:00:30;;;;;;;;;;;9.80;87.20;;;;;;5054517;28;19916;-81
2023/03/14 03:02:55;;;;;;;;;;;9.90;87.20;;;;;;5035053;28;19913;-80
2023/03/14 03:05:21;;;;;;;;;;;9.90;87.10;;;;;;5039034;28;19916;-80
2023/03/14 03:07:46;;;;;;;;;;;9.90;87.00;;;;;;5052647;28;19936;-80
2023/03/14 03:10:12;;;;;;;;;;;9.90;86.90;;;;;;5057109;28;19913;-80
2023/03/14 03:12:37;;;;;;;;;;;9.80;87.10;;;;;;5058714;28;20355;-80
2023/03/14 03:15:03;;;;;;;;;;;9.80;87.00;;;;;;5037577;28;19913;-81
2023/03/14 03:17:28;;;;;;;;;;;9.90;86.70;;;;;;5040450;28;19913;-80
2023/03/14 03:19:54;;;;;;;;;;;9.80;86.60;;;;;;5053422;28;21165;-80
2023/03/14 03:22:19;;;;;;;;;;;9.80;86.80;;;;;;5041088;28;19924;-79
2023/03/14 03:24:45;;;;;;;;;;;9.80;86.50;;;;;;5055870;28;20388;-81
2023/03/14 03:27:10;;;;;;;;;;;9.80;86.60;;;;;;5042340;28;19920;-80
2023/03/14 03:29:36;;;;;;;;;;;9.80;86.50;;;;;;5037067;28;19928;-80
2023/03/14 03:32:01;;;;;;;;;;;9.80;86.40;;;;;;5037482;28;19913;-81
2023/03/14 03:34:27;;;;;;;;;;;9.80;86.40;;;;;;5048932;28;19936;-79
2023/03/14 03:36:55;;;;;;;;;;;9.90;85.90;;;;;;5055601;28;19917;-79
2023/03/14 03:39:20;;;;;;;;;;;9.80;85.70;;;;;;5044869;28;20559;-79
2023/03/14 03:41:46;;;;;;;;;;;9.80;85.90;;;;;;5037783;28;19960;-79
2023/03/14 03:44:12;;;;;;;;;;;9.90;85.60;;;;;;5052905;28;19925;-79
2023/03/14 03:46:38;;;;;;;;;;;9.90;85.80;;;;;;5050814;28;19935;-79
2023/03/14 03:49:03;;;;;;;;;;;9.90;85.60;;;;;;5036030;28;19963;-79
2023/03/14 03:51:29;;;;;;;;;;;9.80;85.50;;;;;;5053452;28;20085;-79
2023/03/14 03:53:55;;;;;;;;;;;9.80;85.30;;;;;;5032261;28;20388;-80
2023/03/14 03:56:21;;;;;;;;;;;9.90;85.70;;;;;;5032678;28;19913;-80
2023/03/14 03:58:46;;;;;;;;;;;9.90;85.30;;;;;;5037427;28;19913;-80
2023/03/14 04:01:12;;;;;;;;;;;9.80;85.40;;;;;;5059820;28;19912;-80
2023/03/14 04:03:40;;;;;;;;;;;9.90;85.40;;;;;;5034928;28;19925;-80
2023/03/14 04:06:07;;;;;;;;;;;9.90;85.40;;;;;;5053695;28;19913;-82
2023/03/14 04:08:32;;;;;;;;;;;9.90;86.10;;;;;;5055391;28;19913;-81
2023/03/14 04:10:58;;;;;;;;;;;9.90;86.40;;;;;;5056974;28;20008;-81
2023/03/14 04:13:24;;;;;;;;;;;9.80;86.70;;;;;;5035363;28;19935;-81
2023/03/14 04:15:50;;;;;;;;;;;9.80;86.90;;;;;;5034137;28;19952;-80
2023/03/14 04:18:16;;;;;;;;;;;9.80;86.70;;;;;;5053390;28;19932;-80
2023/03/14 04:20:41;;;;;;;;;;;9.80;86.60;;;;;;5043820;28;19959;-81
2023/03/14 04:23:06;;;;;;;;;;;9.70;86.70;;;;;;5034360;28;19916;-80
2023/03/14 04:25:32;;;;;;;;;;;9.70;86.30;;;;;;5058830;28;19914;-80
2023/03/14 04:27:57;;;;;;;;;;;9.70;86.10;;;;;;5068260;28;19897;-80
2023/03/14 04:30:23;;;;;;;;;;;9.80;86.20;;;;;;5068354;28;19913;-79
2023/03/14 04:32:48;;;;;;;;;;;9.80;85.60;;;;;;5043810;28;19935;-80
2023/03/14 04:35:14;;;;;;;;;;;9.80;85.60;;;;;;5043926;28;19920;-80
2023/03/14 04:37:41;;;;;;;;;;;9.70;86.10;;;;;;5040327;28;19913;-80
2023/03/14 04:40:07;;;;;;;;;;;9.70;85.70;;;;;;5036899;28;20533;-81
2023/03/14 04:42:33;;;;;;;;;;;9.60;85.50;;;;;;5031727;28;19913;-81
2023/03/14 04:44:58;;;;;;;;;;;9.60;85.80;;;;;;5034857;28;19917;-82
2023/03/14 04:47:24;;;;;;;;;;;9.60;86.00;;;;;;5051070;28;20000;-82
2023/03/14 04:49:49;;;;;;;;;;;9.40;86.20;;;;;;5052600;28;19915;-82
2023/03/14 04:52:15;;;;;;;;;;;9.30;86.90;;;;;;5043845;28;19956;-81
2023/03/14 04:54:40;;;;;;;;;;;9.30;87.70;;;;;;5050540;28;20387;-81
2023/03/14 04:57:05;;;;;;;;;;;9.10;88.30;;;;;;5034051;28;19921;-82
2023/03/14 04:59:31;;;;;;;;;;;9.10;88.70;;;;;;5050938;28;19959;-81
2023/03/14 05:01:56;;;;;;;;;;;9.10;88.90;;;;;;5054202;28;19935;-83
2023/03/14 05:04:22;;;;;;;;;;;9.10;89.20;;;;;;5060175;28;19950;-83
2023/03/14 05:06:47;;;;;;;;;;;9.10;89.30;;;;;;5053835;28;19913;-84
2023/03/14 05:09:13;;;;;;;;;;;9.00;89.60;;;;;;5054005;28;19920;-85
2023/03/14 05:11:38;;;;;;;;;;;9.00;90.20;;;;;;5037144;28;19913;-85
2023/03/14 05:14:04;;;;;;;;;;;9.00;89.70;;;;;;5036036;28;19970;-86
2023/03/14 05:16:29;;;;;;;;;;;8.90;89.30;;;;;;5034685;28;19940;-86
2023/03/14 05:18:55;;;;;;;;;;;8.90;89.20;;;;;;5035027;28;19913;-84
2023/03/14 05:21:20;;;;;;;;;;;8.80;89.30;;;;;;5052921;28;19944;-84
2023/03/14 05:23:45;;;;;;;;;;;8.70;89.50;;;;;;5048702;28;20660;-83
2023/03/14 05:26:11;;;;;;;;;;;8.70;89.70;;;;;;5051251;28;19920;-83
2023/03/14 05:28:37;;;;;;;;;;;8.70;90.00;;;;;;5027833;28;20363;-82
2023/03/14 05:31:05;;;;;;;;;;;8.60;90.00;;;;;;5050778;28;19916;-82
2023/03/14 05:33:31;;;;;;;;;;;8.60;90.60;;;;;;5057538;28;19944;-82
2023/03/14 05:35:56;;;;;;;;;;;8.60;90.40;;;;;;5052013;28;19974;-82
2023/03/14 05:38:22;;;;;;;;;;;8.60;90.50;;;;;;5057493;28;19917;-82
2023/03/14 05:40:47;;;;;;;;;;;8.60;90.40;;;;;;5051258;28;19913;-82
2023/03/14 05:43:13;;;;;;;;;;;8.60;90.70;;;;;;5037712;28;20369;-83
2023/03/14 05:45:38;;;;;;;;;;;8.60;91.00;;;;;;5031402;28;19919;-83
2023/03/14 05:48:04;;;;;;;;;;;8.60;90.90;;;;;;5028561;28;19917;-83
2023/03/14 05:50:30;;;;;;;;;;;8.60;91.00;;;;;;5029223;28;19913;-83
2023/03/14 05:52:55;;;;;;;;;;;8.60;91.20;;;;;;5054476;28;19962;-83
2023/03/14 05:55:20;;;;;;;;;;;8.60;91.20;;;;;;5033769;28;20230;-82
2023/03/14 05:57:46;;;;;;;;;;;8.60;91.20;;;;;;5058392;28;19920;-82
2023/03/14 06:00:12;;;;;;;;;;;8.70;91.50;;;;;;5036623;28;19920;-82
2023/03/14 06:02:37;;;;;;;;;;;8.80;91.50;;;;;;5038575;28;19936;-81
2023/03/14 06:05:04;;;;;;;;;;;8.80;91.30;;;;;;5034175;28;19921;-82
2023/03/14 06:07:29;;;;;;;;;;;8.80;91.30;;;;;;5054899;28;19924;-82
2023/03/14 06:09:55;;;;;;;;;;;9.00;91.40;;;;;;5044141;28;19913;-82
2023/03/14 06:12:20;;;;;;;;;;;9.00;91.20;;;;;;5054374;28;20391;-81
2023/03/14 06:14:46;;;;;;;;;;;8.90;91.20;;;;;;5058100;28;20448;-83
2023/03/14 06:17:11;;;;;;;;;;;9.00;91.10;;;;;;5062295;28;19912;-82
2023/03/14 06:19:36;;;;;;;;;;;9.10;91.50;;;;;;5046744;28;20292;-83
2023/03/14 06:22:02;;;;;;;;;;;9.10;91.20;;;;;;5066457;22;19939;-79
2023/03/14 06:24:27;;;;;;;;;;;9.10;91.10;;;;;;5087608;28;19934;-78
2023/03/14 06:26:53;;;;;;;;;;;9.10;91.10;;;;;;5076501;28;20326;-77
2023/03/14 06:29:18;;;;;;;;;;;9.20;91.40;;;;;;5091569;28;20109;-77
2023/03/14 06:31:44;;;;;;;;;;;9.10;91.40;;;;;;5071258;28;19919;-77
2023/03/14 06:34:09;;;;;;;;;;;9.20;91.40;;;;;;5073954;28;19921;-78
2023/03/14 06:36:35;;;;;;;;;;;9.30;91.60;;;;;;5068056;28;19941;-76
2023/03/14 06:39:00;;;;;;;;;;;9.30;91.60;;;;;;5057286;28;19919;-77
2023/03/14 06:41:26;;;;;;;;;;;9.30;91.50;;;;;;5066829;28;19924;-80
2023/03/14 06:43:52;;;;;;;;;;;9.30;91.60;;;;;;5057597;28;19951;-78
2023/03/14 06:46:17;;;;;;;;;;;9.30;91.50;;;;;;5050449;28;19912;-77
2023/03/14 06:48:43;;;;;;;;;;;9.30;91.50;;;;;;5075473;28;19913;-78
2023/03/14 06:51:09;;;;;;;;;;;9.30;91.70;;;;;;5076842;28;20369;-80
2023/03/14 06:53:34;;;;;;;;;;;9.40;91.70;;;;;;5067164;28;19939;-77
2023/03/14 06:56:00;;;;;;;;;;;9.40;91.70;;;;;;5072665;28;19913;-77
2023/03/14 06:58:25;;;;;;;;;;;9.50;91.60;;;;;;5059580;28;19927;-77
2023/03/14 07:00:52;;;;;;;;;;;9.60;91.20;;;;;;5052474;28;20011;-78
2023/03/14 07:03:17;;;;;;;;;;;9.60;91.20;;;;;;5070073;28;19934;-77
2023/03/14 07:05:43;;;;;;;;;;;9.60;91.20;;;;;;5066850;28;19923;-78
2023/03/14 07:08:08;;;;;;;;;;;9.60;91.20;;;;;;5045089;28;20003;-77
2023/03/14 07:10:34;;;;;;;;;;;9.60;91.10;;;;;;5054333;28;19917;-77
2023/03/14 07:12:59;;;;;;;;;;;9.60;91.20;;;;;;5066647;28;20429;-77
2023/03/14 07:15:25;;;;;;;;;;;9.60;91.20;;;;;;5056094;28;19924;-78
2023/03/14 07:17:50;;;;;;;;;;;9.60;91.20;;;;;;5053263;28;19920;-76
2023/03/14 07:20:16;;;;;;;;;;;9.50;91.20;;;;;;5045586;28;19913;-78
2023/03/14 07:22:41;;;;;;;;;;;9.60;91.20;;;;;;5069144;28;20379;-77
2023/03/14 07:25:09;;;;;;;;;;;9.60;91.30;;;;;;5045106;28;19916;-77
2023/03/14 07:27:34;;;;;;;;;;;9.70;91.50;;;;;;5060391;28;19979;-77
2023/03/14 07:30:00;;;;;;;;;;;9.70;91.00;;;;;;5069049;28;19952;-76
2023/03/14 07:32:25;;;;;;;;;;;9.70;91.10;;;;;;5059513;28;19913;-77
2023/03/14 07:34:51;;;;;;;;;;;9.80;90.90;;;;;;5048874;28;21410;-77
2023/03/14 07:37:16;;;;;;;;;;;9.80;91.00;;;;;;5088622;28;20075;-78
2023/03/14 07:39:41;;;;;;;;;;;9.90;91.20;;;;;;5064531;28;19934;-78
2023/03/14 07:42:07;;;;;;;;;;;9.90;90.70;;;;;;5054843;28;19916;-77
2023/03/14 07:44:32;;;;;;;;;;;10.00;90.70;;;;;;5055741;28;19916;-77
2023/03/14 07:46:58;;;;;;;;;;;10.00;90.30;;;;;;5041728;28;19923;-78
2023/03/14 07:49:23;;;;;;;;;;;10.10;90.10;;;;;;5056235;28;19916;-77
2023/03/14 07:51:49;;;;;;;;;;;10.10;90.00;;;;;;5052790;28;20273;-77
2023/03/14 07:54:14;;;;;;;;;;;10.00;89.80;;;;;;5062497;28;19921;-77
2023/03/14 07:56:40;;;;;;;;;;;10.00;90.00;;;;;;5068661;28;20003;-77
2023/03/14 07:59:05;;;;;;;;;;;10.00;90.10;;;;;;5069237;28;20337;-76
2023/03/14 08:01:31;;;;;;;;;;;10.00;90.20;;;;;;5057552;28;19948;-77
2023/03/14 08:03:56;;;;;;;;;;;10.10;90.30;;;;;;5066394;28;19921;-78
2023/03/14 08:06:22;;;;;;;;;;;10.10;90.10;;;;;;5045613;28;19958;-77
2023/03/14 08:08:47;;;;;;;;;;;10.10;90.20;;;;;;5041985;28;19935;-77
2023/03/14 08:11:13;;;;;;;;;;;10.10;90.50;;;;;;5055894;28;19916;-77
2023/03/14 08:13:39;;;;;;;;;;;10.10;90.50;;;;;;5075414;28;19994;-77
2023/03/14 08:16:05;;;;;;;;;;;10.10;90.70;;;;;;5055791;28;20372;-76
2023/03/14 08:18:30;;;;;;;;;;;10.00;90.70;;;;;;5033752;28;19944;-77
2023/03/14 08:20:56;;;;;;;;;;;10.00;90.90;;;;;;5056755;28;19940;-77
2023/03/14 08:23:21;;;;;;;;;;;10.00;90.80;;;;;;5060783;28;19960;-77
2023/03/14 08:25:50;;;;;;;;;;;10.00;91.10;;;;;;5070037;28;20393;-75
2023/03/14 08:28:16;;;;;;;;;;;10.10;91.00;;;;;;5066063;28;19917;-76
2023/03/14 08:30:42;;;;;;;;;;;10.00;91.20;;;;;;5046338;28;19913;-76
2023/03/14 08:33:07;;;;;;;;;;;10.00;91.30;;;;;;5044882;28;19920;-76
2023/03/14 08:35:33;;;;;;;;;;;10.10;91.40;;;;;;5052170;28;19912;-76
2023/03/14 08:37:58;;;;;;;;;;;10.20;91.60;;;;;;5070490;28;20015;-77
2023/03/14 08:40:24;;;;;;;;;;;10.20;91.40;;;;;;5058807;28;19974;-76
2023/03/14 08:42:49;;;;;;;;;;;10.20;91.40;;;;;;5046354;28;19912;-77
2023/03/14 08:45:16;;;;;;;;;;;10.20;91.60;;;;;;5038432;28;19925;-76
2023/03/14 08:47:42;;;;;;;;;;;10.20;91.50;;;;;;5067947;28;19979;-77
2023/03/14 08:50:09;;;;;;;;;;;10.10;91.80;;;;;;5058296;28;20493;-77
2023/03/14 08:52:34;;;;;;;;;;;10.20;91.80;;;;;;5051474;28;19920;-78
2023/03/14 08:54:59;;;;;;;;;;;10.20;91.50;;;;;;5048283;28;20402;-77
2023/03/14 08:57:27;;;;;;;;;;;10.20;91.50;;;;;;5067683;28;19916;-77
2023/03/14 08:59:54;;;;;;;;;;;10.20;91.50;;;;;;5062272;28;19923;-77
2023/03/14 09:02:19;;;;;;;;;;;10.30;91.60;;;;;;5058973;28;19909;-77
2023/03/14 09:04:44;;;;;;;;;;;10.50;91.40;;;;;;5049928;28;20410;-77
2023/03/14 09:07:10;;;;;;;;;;;10.60;90.70;;;;;;5068636;28;19944;-76
2023/03/14 09:09:36;;;;;;;;;;;10.70;90.70;;;;;;5064034;28;20375;-77
2023/03/14 09:12:01;;;;;;;;;;;10.70;90.40;;;;;;5064299;28;19920;-77
2023/03/14 09:14:27;;;;;;;;;;;10.80;90.20;;;;;;5044406;28;19917;-77
2023/03/14 09:16:53;;;;;;;;;;;10.70;90.40;;;;;;5055686;28;19912;-81
2023/03/14 09:19:18;;;;;;;;;;;10.60;90.50;;;;;;5060063;28;19954;-77
2023/03/14 09:21:43;;;;;;;;;;;10.50;91.00;;;;;;5074422;28;20344;-77
2023/03/14 09:24:09;;;;;;;;;;;10.50;91.30;;;;;;5071116;28;19916;-77
2023/03/14 09:26:34;;;;;;;;;;;10.50;91.10;;;;;;5069429;28;20390;-76
2023/03/14 09:29:00;;;;;;;;;;;10.50;90.90;;;;;;5068162;28;20034;-76
2023/03/14 09:31:25;;;;;;;;;;;10.40;90.90;;;;;;5067993;28;19916;-76
2023/03/14 09:33:51;;;;;;;;;;;10.40;91.00;;;;;;5068044;28;20003;-76
2023/03/14 09:36:16;;;;;;;;;;;10.30;91.20;;;;;;5064816;28;19913;-75
2023/03/14 09:38:42;;;;;;;;;;;10.30;90.90;;;;;;5073822;28;19912;-76
2023/03/14 09:41:13;;;;;;;;;;;10.20;90.90;;;;;;5067901;28;19999;-75
2023/03/14 09:43:39;;;;;;;;;;;10.20;90.50;;;;;;5063338;28;20057;-75
2023/03/14 09:46:05;;;;;;;;;;;10.20;90.70;;;;;;5054932;28;20392;-75
2023/03/14 09:48:32;;;;;;;;;;;10.10;90.80;;;;;;5065086;28;19939;-75
2023/03/14 09:50:59;;;;;;;;;;;10.10;90.40;;;;;;5065995;28;20022;-75
2023/03/14 09:53:44;;;;;;;;;;;10.00;88.70;;;;;;5050236;28;19917;-74
2023/03/14 09:56:11;;;;;;;;;;;9.80;87.20;;;;;;5054953;28;19931;-74
2023/03/14 09:58:38;;;;;;;;;;;9.60;86.80;;;;;;5036517;28;19908;-74
2023/03/14 10:01:03;;;;;;;;;;;9.60;86.50;;;;;;5061653;28;19962;-75
2023/03/14 10:03:31;;;;;;;;;;;9.40;86.30;;;;;;5052749;28;19916;-74
2023/03/14 10:05:56;;;;;;;;;;;9.30;86.70;;;;;;5053598;28;20339;-74
2023/03/14 10:08:22;;;;;;;;;;;9.30;88.00;;;;;;5053233;28;19915;-74
2023/03/14 10:10:47;;;;;;;;;;;9.30;87.80;;;;;;5053827;28;19959;-74
2023/03/14 10:13:13;;;;;;;;;;;9.30;87.90;;;;;;5053151;28;19909;-74
2023/03/14 10:15:38;;;;;;;;;;;9.20;88.20;;;;;;5034790;28;19950;-74
2023/03/14 10:18:11;;;;;;;;;;;9.10;87.90;;;;;;5058513;28;19920;-74
2023/03/14 10:20:38;;;;;;;;;;;9.10;87.80;;;;;;5060678;28;19912;-74
2023/03/14 10:23:06;;;;;;;;;;;9.10;87.90;;;;;;5058036;28;19944;-74
2023/03/14 10:25:35;;;;;;;;;;;9.10;87.60;;;;;;5054969;28;20003;-74
2023/03/14 10:28:02;;;;;;;;;;;9.00;88.00;;;;;;5055680;28;19913;-74
2023/03/14 10:30:44;;;;;;;;;;;8.80;86.90;;;;;;5069554;28;19918;-74
2023/03/14 10:33:21;;;;;;;;;;;8.80;87.40;;;;;;5054415;28;19908;-74
2023/03/14 10:35:52;;;;;;;;;;;8.80;88.00;;;;;;5052259;28;19923;-75
2023/03/14 10:38:18;;;;;;;;;;;8.60;88.00;;;;;;5068374;28;19912;-74
2023/03/14 10:40:49;;;;;;;;;;;8.40;88.60;;;;;;5046692;28;20364;-74
2023/03/14 10:43:19;;;;;;;;;;;8.30;88.90;;;;;;5052310;28;19908;-75
2023/03/14 10:45:51;;;;;;;;;;;8.20;89.80;;;;;;5034650;28;20482;-74
2023/03/14 10:48:21;;;;;;;;;;;8.40;90.40;;;;;;5052085;28;19909;-74
2023/03/14 10:50:54;;;;;;;;;;;8.50;90.10;;;;;;5052609;28;19913;-74
2023/03/14 10:53:19;;;;;;;;;;;8.40;89.90;;;;;;5051645;28;19909;-74
2023/03/14 10:55:45;;;;;;;;;;;8.40;89.40;;;;;;5068949;28;19982;-74
2023/03/14 10:58:18;;;;;;;;;;;8.40;88.80;;;;;;5071751;28;20399;-74
2023/03/14 11:00:44;;;;;;;;;;;8.30;89.20;;;;;;5071896;28;19909;-75
2023/03/14 11:03:11;;;;;;;;;;;8.40;88.90;;;;;;5072194;28;19954;-74
2023/03/14 11:05:43;;;;;;;;;;;8.20;86.70;;;;;;5053772;28;19912;-74
2023/03/14 11:08:20;;;;;;;;;;;8.10;86.40;;;;;;5070348;28;19966;-74
2023/03/14 11:10:48;;;;;;;;;;;8.00;85.70;;;;;;5068461;28;19955;-74
2023/03/14 11:13:17;;;;;;;;;;;7.80;84.90;;;;;;5052014;28;19955;-74
2023/03/14 11:16:01;;;;;;;;;;;7.60;85.80;;;;;;5051370;28;20364;-74
2023/03/14 11:18:29;;;;;;;;;;;7.60;86.20;;;;;;5033932;28;19999;-74
2023/03/14 11:21:13;;;;;;;;;;;7.80;86.70;;;;;;5052117;28;19913;-74
2023/03/14 11:23:39;;;;;;;;;;;7.80;85.40;;;;;;5037374;28;20014;-74
2023/03/14 11:26:20;;;;;;;;;;;7.80;85.60;;;;;;5036553;28;19913;-74
2023/03/14 11:28:49;;;;;;;;;;;7.70;83.20;;;;;;5051566;28;19916;-74
2023/03/14 11:31:41;;;;;;;;;;;7.40;83.10;;;;;;5068428;28;19966;-74
2023/03/14 11:34:26;;;;;;;;;;;7.10;84.60;;;;;;5049187;28;19954;-74
2023/03/14 11:36:52;;;;;;;;;;;7.20;83.80;;;;;;5071405;28;19963;-73
2023/03/14 11:39:19;;;;;;;;;;;7.30;83.50;;;;;;5061203;28;19999;-75
2023/03/14 11:41:50;;;;;;;;;;;7.50;81.80;;;;;;5071373;28;20445;-73
2023/03/14 11:44:24;;;;;;;;;;;7.40;81.80;;;;;;5051270;28;20028;-74
2023/03/14 11:47:09;;;;;;;;;;;7.40;81.30;;;;;;5044891;28;20065;-74
2023/03/14 11:49:35;;;;;;;;;;;7.30;81.50;;;;;;5071768;28;19999;-74
2023/03/14 11:52:05;;;;;;;;;;;7.20;81.20;;;;;;5068643;28;20038;-74
2023/03/14 11:54:39;;;;;;;;;;;7.20;80.90;;;;;;5057498;28;19909;-73
2023/03/14 11:57:09;;;;;;;;;;;7.10;81.20;;;;;;5033565;28;19909;-73
2023/03/14 11:59:46;;;;;;;;;;;7.00;81.70;;;;;;5040808;28;19917;-73
2023/03/14 12:02:32;;;;;;;;;;;7.00;82.30;;;;;;5057839;28;20294;-74
2023/03/14 12:05:16;;;;;;;;;;;7.00;81.20;;;;;;5063919;28;19916;-74
2023/03/14 12:07:53;;;;;;;;;;;6.90;80.80;;;;;;5068639;28;19913;-75
2023/03/14 12:10:19;;;;;;;;;;;6.80;81.10;;;;;;5061309;28;19912;-74
2023/03/14 12:12:44;;;;;;;;;;;6.80;81.30;;;;;;5055926;28;19913;-73
2023/03/14 12:15:18;;;;;;;;;;;6.80;81.40;;;;;;5054701;28;20375;-73
2023/03/14 12:17:44;;;;;;;;;;;6.90;81.10;;;;;;5033981;28;19913;-74
2023/03/14 12:20:15;;;;;;;;;;;6.80;82.20;;;;;;5048050;28;19955;-75
2023/03/14 12:22:43;;;;;;;;;;;7.00;81.70;;;;;;5090387;22;19928;-88
2023/03/14 12:25:11;;;;;;;;;;;7.00;80.90;;;;;;5096584;28;19920;-87
2023/03/14 12:27:40;;;;;;;;;;;6.90;79.90;;;;;;5096296;28;19914;-87
2023/03/14 12:30:15;;;;;;;;;;;6.90;79.60;;;;;;5127925;27;20437;-86
2023/03/14 12:32:40;;;;;;;;;;;6.90;80.40;;;;;;5122745;28;19973;-85
2023/03/14 12:35:25;;;;;;;;;;;7.00;80.60;;;;;;5086178;28;19924;-87
2023/03/14 12:37:51;;;;;;;;;;;7.30;79.90;;;;;;5099170;28;19947;-87
2023/03/14 12:40:17;;;;;;;;;;;7.50;80.50;;;;;;5087983;28;19973;-84
2023/03/14 12:42:59;;;;;;;;;;;7.70;78.70;;;;;;5107375;28;19916;-84
2023/03/14 12:45:31;;;;;;;;;;;7.80;80.80;;;;;;5088127;28;19969;-86
2023/03/14 12:48:06;;;;;;;;;;;8.00;80.70;;;;;;5086534;28;19951;-86
2023/03/14 12:50:34;;;;;;;;;;;8.10;79.30;;;;;;5097904;28;19929;-86
2023/03/14 12:53:19;;;;;;;;;;;8.10;77.70;;;;;;5108128;27;19912;-87
2023/03/14 12:56:03;;;;;;;;;;;7.90;77.70;;;;;;5087869;28;20002;-91
2023/03/14 12:58:35;;;;;;;;;;;8.00;77.30;;;;;;5103446;28;19958;-89
2023/03/14 13:01:01;;;;;;;;;;;8.10;78.70;;;;;;5086899;28;19931;-87
2023/03/14 13:03:37;;;;;;;;;;;8.00;78.90;;;;;;5091690;28;19956;-86
2023/03/14 13:06:04;;;;;;;;;;;8.10;79.70;;;;;;5092978;28;19912;-86
2023/03/14 13:08:37;;;;;;;;;;;7.80;80.60;;;;;;5086235;27;20006;-86
2023/03/14 13:11:05;;;;;;;;;;;7.50;80.20;;;;;;5107009;28;19920;-87
2023/03/14 13:13:33;;;;;;;;;;;7.10;80.90;;;;;;5089787;28;19995;-86
2023/03/14 13:16:03;;;;;;;;;;;6.90;82.30;;;;;;5108466;28;19912;-86
2023/03/14 13:18:42;;;;;;;;;;;6.80;83.50;;;;;;5090113;28;20322;-86
2023/03/14 13:21:13;;;;;;;;;;;6.70;84.20;;;;;;5084410;28;19922;-89
2023/03/14 13:23:39;;;;;;;;;;;6.80;85.40;;;;;;5090409;28;19927;-87
2023/03/14 13:26:09;;;;;;;;;;;7.00;85.90;;;;;;5100828;27;19899;-88
2023/03/14 13:28:34;;;;;;;;;;;7.10;84.70;;;;;;5104587;28;19916;-85
2023/03/14 13:31:02;;;;;;;;;;;7.10;84.60;;;;;;5105305;28;19988;-86
2023/03/14 13:33:28;;;;;;;;;;;7.00;84.20;;;;;;5102440;28;19916;-84
2023/03/14 13:35:55;;;;;;;;;;;7.10;83.40;;;;;;5084685;28;19927;-86
2023/03/14 13:38:22;;;;;;;;;;;7.10;83.70;;;;;;5110012;28;19918;-88
2023/03/14 13:40:49;;;;;;;;;;;7.30;82.20;;;;;;5113328;28;19915;-87
2023/03/14 13:43:16;;;;;;;;;;;7.20;79.00;;;;;;5105046;28;19922;-89
2023/03/14 13:46:08;;;;;;;;;;;7.00;80.10;;;;;;5086527;28;19916;-86
2023/03/14 13:48:39;;;;;;;;;;;6.80;79.30;;;;;;5111100;27;19912;-87
2023/03/14 13:51:06;;;;;;;;;;;6.50;80.10;;;;;;5088890;28;19962;-86
2023/03/14 13:53:45;;;;;;;;;;;6.30;81.60;;;;;;5089022;28;19912;-88
2023/03/14 13:56:11;;;;;;;;;;;6.40;81.60;;;;;;5091121;28;19934;-89
2023/03/14 13:58:40;;;;;;;;;;;6.60;81.80;;;;;;5085780;28;20384;-87
2023/03/14 14:01:25;;;;;;;;;;;6.80;80.90;;;;;;5091742;28;19911;-87
2023/03/14 14:06:37;;;;;;;;;;;7.00;82.30;;;;;;5107879;28;19977;-89
2023/03/14 14:09:22;;;;;;;;;;;7.20;81.10;;;;;;5109003;28;19918;-89
2023/03/14 14:12:02;;;;;;;;;;;7.30;81.60;;;;;;5119708;28;19912;-88
2023/03/14 14:14:58;;;;;;;;;;;7.50;81.50;;;;;;5093173;28;20432;-87
2023/03/14 14:17:40;;;;;;;;;;;7.80;82.50;;;;;;5088082;28;19930;-87
2023/03/14 14:23:19;;;;;;;;;;;7.80;81.80;;;;;;5109169;28;20046;-87
2023/03/14 14:25:48;;;;;;;;;;;7.90;80.60;;;;;;5091285;28;19916;-86
2023/03/14 14:28:29;;;;;;;;;;;7.90;77.70;;;;;;5088428;28;19919;-86
2023/03/14 14:31:31;;;;;;;;;;;8.00;77.70;;;;;;5082555;28;20011;-85
2023/03/14 14:34:10;;;;;;;;;;;8.00;74.80;;;;;;5090195;28;19912;-84
2023/03/14 14:36:40;;;;;;;;;;;8.00;76.30;;;;;;5092009;27;19954;-84
2023/03/14 14:39:10;;;;;;;;;;;8.00;74.50;;;;;;5088698;28;19908;-86